createdAt,value
2022-12-28T00:01:19.987Z,12.57
2022-12-28T00:03:49.436Z,10.20
2022-12-28T00:06:17.898Z,13.27
2022-12-28T00:08:46.033Z,10.77
2022-12-28T00:11:30.690Z,13.50
2022-12-28T00:14:00.010Z,9.03
2022-12-28T00:16:29.235Z,7.93
2022-12-28T00:18:59.151Z,8.33
2022-12-28T00:21:27.550Z,11.80
2022-12-28T00:23:57.475Z,12.47
2022-12-28T00:26:26.641Z,13.90
2022-12-28T00:29:00.035Z,12.77
2022-12-28T00:31:31.997Z,12.83
2022-12-28T00:34:01.495Z,14.13
2022-12-28T00:37:08.623Z,11.00
2022-12-28T00:39:17.460Z,10.00
2022-12-28T00:41:45.389Z,10.87
2022-12-28T00:44:13.347Z,12.97
2022-12-28T00:46:41.462Z,12.77
2022-12-28T00:49:10.901Z,9.83
2022-12-28T00:51:38.888Z,11.20
2022-12-28T00:54:07.039Z,10.13
2022-12-28T00:56:35.040Z,9.07
2022-12-28T00:59:03.088Z,11.40
2022-12-28T01:01:31.212Z,11.27
2022-12-28T01:03:59.801Z,15.60
2022-12-28T01:06:29.592Z,14.07
2022-12-28T01:08:57.698Z,14.13
2022-12-28T01:11:26.632Z,13.07
2022-12-28T01:13:56.046Z,16.07
2022-12-28T01:16:26.418Z,11.20
2022-12-28T01:18:58.481Z,15.00
2022-12-28T01:21:27.753Z,10.40
2022-12-28T01:23:57.769Z,12.87
2022-12-28T01:26:25.775Z,13.57
2022-12-28T01:28:53.864Z,14.47
2022-12-28T01:31:22.455Z,13.43
2022-12-28T01:33:50.526Z,16.23
2022-12-28T01:36:19.353Z,14.93
2022-12-28T01:38:47.768Z,16.77
2022-12-28T01:41:18.324Z,14.47
2022-12-28T01:43:47.011Z,16.73
2022-12-28T01:46:16.742Z,14.57
2022-12-28T01:48:47.117Z,16.43
2022-12-28T01:51:15.239Z,15.90
2022-12-28T01:53:43.235Z,11.03
2022-12-28T01:56:11.425Z,13.90
2022-12-28T01:58:41.015Z,11.67
2022-12-28T02:01:09.130Z,11.50
2022-12-28T02:03:37.454Z,12.40
2022-12-28T02:06:07.411Z,11.90
2022-12-28T02:08:41.505Z,10.57
2022-12-28T02:11:12.124Z,10.83
2022-12-28T02:13:41.760Z,10.10
2022-12-28T02:16:11.508Z,13.97
2022-12-28T02:18:39.668Z,13.07
2022-12-28T02:21:16.913Z,11.60
2022-12-28T02:23:58.297Z,12.90
2022-12-28T02:26:56.234Z,15.77
2022-12-28T02:29:39.061Z,11.77
2022-12-28T02:32:12.616Z,13.03
2022-12-28T02:34:43.051Z,9.60
2022-12-28T02:37:13.406Z,10.93
2022-12-28T02:39:43.383Z,13.10
2022-12-28T02:42:11.526Z,10.80
2022-12-28T02:44:56.822Z,8.50
2022-12-28T02:47:43.418Z,9.87
2022-12-28T02:50:14.528Z,12.90
2022-12-28T02:52:59.091Z,11.03
2022-12-28T02:55:48.823Z,11.23
2022-12-28T02:58:23.635Z,9.63
2022-12-28T03:01:00.022Z,9.90
2022-12-28T03:03:33.479Z,14.30
2022-12-28T03:06:28.449Z,7.73
2022-12-28T03:09:01.192Z,9.40
2022-12-28T03:11:35.587Z,11.03
2022-12-28T03:14:07.079Z,12.20
2022-12-28T03:16:57.659Z,14.47
2022-12-28T03:19:46.822Z,10.23
2022-12-28T03:22:34.788Z,13.10
2022-12-28T03:25:21.920Z,11.77
2022-12-28T03:28:08.173Z,13.20
2022-12-28T03:30:55.270Z,12.37
2022-12-28T03:33:23.542Z,12.90
2022-12-28T03:35:59.334Z,10.30
2022-12-28T03:38:30.447Z,9.07
2022-12-28T03:41:02.472Z,9.97
2022-12-28T03:43:43.561Z,11.00
2022-12-28T03:46:14.834Z,8.67
2022-12-28T03:48:43.458Z,10.33
2022-12-28T03:51:14.162Z,11.13
2022-12-28T03:53:43.314Z,11.00
2022-12-28T03:56:12.096Z,11.03
2022-12-28T03:58:40.351Z,10.37
2022-12-28T04:01:08.494Z,9.67
2022-12-28T04:03:36.656Z,13.73
2022-12-28T04:06:05.225Z,8.10
2022-12-28T04:08:35.085Z,9.33
2022-12-28T04:11:03.257Z,10.43
2022-12-28T04:13:32.018Z,11.53
2022-12-28T04:16:01.264Z,10.30
2022-12-28T04:18:29.380Z,9.53
2022-12-28T04:20:57.397Z,11.73
2022-12-28T04:23:25.647Z,9.27
2022-12-28T04:26:02.582Z,11.27
2022-12-28T04:28:30.776Z,10.60
2022-12-28T04:30:59.076Z,10.53
2022-12-28T04:33:27.419Z,8.97
2022-12-28T04:35:55.402Z,10.50
2022-12-28T04:38:23.394Z,11.33
2022-12-28T04:40:51.354Z,9.73
2022-12-28T04:43:20.718Z,11.50
2022-12-28T04:45:56.604Z,8.67
2022-12-28T04:48:24.648Z,9.27
2022-12-28T04:50:55.803Z,10.23
2022-12-28T04:53:23.924Z,8.47
2022-12-28T04:55:51.991Z,9.90
2022-12-28T04:58:21.474Z,8.97
2022-12-28T05:00:49.493Z,9.93
2022-12-28T05:03:17.532Z,12.47
2022-12-28T05:05:45.509Z,9.70
2022-12-28T05:08:13.468Z,10.47
2022-12-28T05:10:41.389Z,10.37
2022-12-28T05:13:09.365Z,9.60
2022-12-28T05:15:39.159Z,7.03
2022-12-28T05:18:07.219Z,8.60
2022-12-28T05:20:35.335Z,9.23
2022-12-28T05:23:03.292Z,9.50
2022-12-28T05:25:31.764Z,12.23
2022-12-28T05:27:59.755Z,10.17
2022-12-28T05:30:27.693Z,13.40
2022-12-28T05:32:57.137Z,11.97
2022-12-28T05:35:25.530Z,8.43
2022-12-28T05:37:56.006Z,11.43
2022-12-28T05:40:24.171Z,10.10
2022-12-28T05:42:52.100Z,8.50
2022-12-28T05:45:20.128Z,8.20
2022-12-28T05:47:48.423Z,9.10
2022-12-28T05:50:18.077Z,10.63
2022-12-28T05:52:46.080Z,8.90
2022-12-28T05:55:14.009Z,8.37
2022-12-28T05:57:41.943Z,12.50
2022-12-28T06:00:10.486Z,9.23
2022-12-28T06:02:38.553Z,11.23
2022-12-28T06:05:07.120Z,8.90
2022-12-28T06:07:36.512Z,10.50
2022-12-28T06:10:04.801Z,9.17
2022-12-28T06:12:32.831Z,10.83
2022-12-28T06:15:00.848Z,9.67
2022-12-28T06:17:28.818Z,9.40
2022-12-28T06:19:56.758Z,8.00
2022-12-28T06:22:24.765Z,7.30
2022-12-28T06:24:54.151Z,7.30
2022-12-28T06:27:22.244Z,8.30
2022-12-28T06:29:50.215Z,8.70
2022-12-28T06:32:18.141Z,8.23
2022-12-28T06:34:46.163Z,8.60
2022-12-28T06:37:14.135Z,8.93
2022-12-28T06:39:42.100Z,7.80
2022-12-28T06:42:11.460Z,6.70
2022-12-28T06:44:44.556Z,11.97
2022-12-28T06:47:13.095Z,9.53
2022-12-28T06:49:41.077Z,8.03
2022-12-28T06:52:09.037Z,11.27
2022-12-28T06:54:37.011Z,9.17
2022-12-28T06:57:05.091Z,8.63
2022-12-28T06:59:34.513Z,9.97
2022-12-28T07:02:02.658Z,10.43
2022-12-28T07:04:30.705Z,8.43
2022-12-28T07:06:58.898Z,9.07
2022-12-28T07:09:26.910Z,9.17
2022-12-28T07:11:54.873Z,8.43
2022-12-28T07:14:25.091Z,7.80
2022-12-28T07:16:54.561Z,10.30
2022-12-28T07:19:22.616Z,10.63
2022-12-28T07:21:51.048Z,9.20
2022-12-28T07:24:19.307Z,8.57
2022-12-28T07:26:47.249Z,8.10
2022-12-28T07:29:15.213Z,10.17
2022-12-28T07:31:45.737Z,8.70
2022-12-28T07:34:16.368Z,8.77
2022-12-28T07:36:44.545Z,10.90
2022-12-28T07:39:12.515Z,11.27
2022-12-28T07:41:40.508Z,10.53
2022-12-28T07:44:08.679Z,10.70
2022-12-28T07:46:37.883Z,8.40
2022-12-28T07:49:06.023Z,12.83
2022-12-28T07:51:36.294Z,9.87
2022-12-28T07:54:04.749Z,10.17
2022-12-28T07:59:00.190Z,13.30
2022-12-28T08:01:29.687Z,10.13
2022-12-28T08:03:59.307Z,9.60
2022-12-28T08:06:28.680Z,9.10
2022-12-28T08:08:59.571Z,14.33
2022-12-28T08:11:28.624Z,12.17
2022-12-28T08:13:57.137Z,8.67
2022-12-28T08:16:27.033Z,11.57
2022-12-28T08:18:55.423Z,12.87
2022-12-28T08:21:24.052Z,12.13
2022-12-28T08:23:52.383Z,9.97
2022-12-28T08:26:22.463Z,8.33
2022-12-28T08:28:54.473Z,10.43
2022-12-28T08:31:24.240Z,9.67
2022-12-28T08:33:52.455Z,11.33
2022-12-28T08:36:20.565Z,8.03
2022-12-28T08:38:48.837Z,9.47
2022-12-28T08:41:17.397Z,10.00
2022-12-28T08:43:47.037Z,8.80
2022-12-28T08:46:16.579Z,9.10
2022-12-28T08:48:45.265Z,9.73
2022-12-28T08:51:15.130Z,9.40
2022-12-28T08:53:43.391Z,8.20
2022-12-28T08:56:12.699Z,10.43
2022-12-28T08:58:41.535Z,10.90
2022-12-28T09:01:12.607Z,11.10
2022-12-28T09:03:41.365Z,8.63
2022-12-28T09:06:11.021Z,11.90
2022-12-28T09:08:39.336Z,16.70
2022-12-28T09:11:08.834Z,19.73
2022-12-28T09:13:37.207Z,7.43
2022-12-28T09:16:06.397Z,7.33
2022-12-28T09:18:35.851Z,11.40
2022-12-28T09:21:07.561Z,8.27
2022-12-28T09:23:35.699Z,7.53
2022-12-28T09:26:07.521Z,8.77
2022-12-28T09:28:35.757Z,12.43
2022-12-28T09:31:04.701Z,11.10
2022-12-28T09:34:23.328Z,11.90
2022-12-28T09:36:40.488Z,11.33
2022-12-28T09:39:09.143Z,13.30
2022-12-28T09:41:40.076Z,13.27
2022-12-28T09:44:41.246Z,9.17
2022-12-28T09:47:13.421Z,11.03
2022-12-28T09:49:43.128Z,10.43
2022-12-28T09:52:26.415Z,9.47
2022-12-28T09:54:54.624Z,8.90
2022-12-28T09:57:23.394Z,10.63
2022-12-28T09:59:52.685Z,9.60
2022-12-28T10:02:22.636Z,13.20
2022-12-28T10:04:51.396Z,9.60
2022-12-28T10:07:21.087Z,6.57
2022-12-28T10:09:49.342Z,8.17
2022-12-28T10:12:18.210Z,6.03
2022-12-28T10:14:46.800Z,5.83
2022-12-28T10:17:15.743Z,9.37
2022-12-28T10:19:45.960Z,7.70
2022-12-28T10:22:16.908Z,5.07
2022-12-28T10:24:46.768Z,4.80
2022-12-28T10:27:18.936Z,4.77
2022-12-28T10:29:46.888Z,6.63
2022-12-28T10:32:14.872Z,4.70
2022-12-28T10:34:54.711Z,5.37
2022-12-28T10:37:22.742Z,6.87
2022-12-28T10:39:54.236Z,5.67
2022-12-28T10:42:24.864Z,5.50
2022-12-28T10:44:52.981Z,5.90
2022-12-28T10:47:28.527Z,5.37
2022-12-28T10:50:26.935Z,6.53
2022-12-28T10:52:44.397Z,6.60
2022-12-28T10:58:34.169Z,7.23
2022-12-28T11:01:07.120Z,6.77
2022-12-28T11:03:36.951Z,6.30
2022-12-28T11:06:11.929Z,4.63
2022-12-28T11:08:41.015Z,5.17
2022-12-28T11:11:09.464Z,5.33
2022-12-28T11:13:40.121Z,5.67
2022-12-28T11:16:12.687Z,5.40
2022-12-28T11:18:41.394Z,6.57
2022-12-28T11:21:11.263Z,4.93
2022-12-28T11:23:39.836Z,5.93
2022-12-28T11:26:11.554Z,5.90
2022-12-28T11:28:45.274Z,6.07
2022-12-28T11:31:18.270Z,4.33
2022-12-28T11:33:48.022Z,5.67
2022-12-28T11:36:16.345Z,6.03
2022-12-28T11:38:45.148Z,5.17
2022-12-28T11:41:13.886Z,5.97
2022-12-28T11:43:51.056Z,8.80
2022-12-28T11:46:42.828Z,6.10
2022-12-28T11:49:30.094Z,4.63
2022-12-28T11:52:16.647Z,4.97
2022-12-28T11:54:52.656Z,10.57
2022-12-28T11:57:34.512Z,5.10
2022-12-28T12:00:22.236Z,6.00
2022-12-28T12:02:53.472Z,4.77
2022-12-28T12:05:39.921Z,4.63
2022-12-28T12:08:22.680Z,6.63
2022-12-28T12:10:50.987Z,5.17
2022-12-28T12:13:40.841Z,5.00
2022-12-28T12:16:17.424Z,5.43
2022-12-28T12:18:48.253Z,4.63
2022-12-28T12:21:23.281Z,4.40
2022-12-28T12:23:53.469Z,6.47
2022-12-28T12:26:28.315Z,5.53
2022-12-28T12:28:57.491Z,5.67
2022-12-28T12:31:27.657Z,6.60
2022-12-28T12:33:59.488Z,6.97
2022-12-28T12:36:35.121Z,7.30
2022-12-28T12:39:11.829Z,9.60
2022-12-28T12:41:45.093Z,5.87
2022-12-28T12:44:19.093Z,8.47
2022-12-28T12:47:06.115Z,6.47
2022-12-28T12:49:48.881Z,7.07
2022-12-28T12:52:20.758Z,6.23
2022-12-28T12:54:55.587Z,7.40
2022-12-28T12:57:26.389Z,7.97
2022-12-28T13:00:02.083Z,7.10
2022-12-28T13:02:50.360Z,7.60
2022-12-28T13:05:21.181Z,7.23
2022-12-28T13:07:49.445Z,6.53
2022-12-28T13:10:18.677Z,7.67
2022-12-28T13:12:46.847Z,7.57
2022-12-28T13:15:18.851Z,7.93
2022-12-28T13:20:56.230Z,7.50
2022-12-28T13:23:26.657Z,4.83
2022-12-28T13:25:55.996Z,4.73
2022-12-28T13:28:24.656Z,5.10
2022-12-28T13:31:06.381Z,5.93
2022-12-28T13:33:34.377Z,4.43
2022-12-28T13:36:14.708Z,5.50
2022-12-28T13:38:42.983Z,5.93
2022-12-28T13:41:19.561Z,4.83
2022-12-28T13:44:05.439Z,5.47
2022-12-28T13:46:33.462Z,4.23
2022-12-28T13:49:01.993Z,4.30
2022-12-28T13:51:32.434Z,5.00
2022-12-28T13:54:01.793Z,7.83
2022-12-28T13:56:30.807Z,8.73
2022-12-28T13:59:00.725Z,4.23
2022-12-28T14:01:32.153Z,3.63
2022-12-28T14:04:25.951Z,5.23
2022-12-28T14:06:51.968Z,5.67
2022-12-28T14:09:21.609Z,3.73
2022-12-28T14:11:50.408Z,4.47
2022-12-28T14:14:18.947Z,4.40
2022-12-28T14:16:47.096Z,4.90
2022-12-28T14:19:15.074Z,6.30
2022-12-28T14:21:45.617Z,5.73
2022-12-28T14:24:16.043Z,7.13
2022-12-28T14:26:48.049Z,8.17
2022-12-28T14:29:21.240Z,6.10
2022-12-28T14:31:49.285Z,5.37
2022-12-28T14:34:24.885Z,4.37
2022-12-28T14:36:53.880Z,4.80
2022-12-28T14:39:27.100Z,5.20
2022-12-28T14:41:55.218Z,6.80
2022-12-28T14:44:26.946Z,5.57
2022-12-28T14:46:55.952Z,5.10
2022-12-28T14:49:37.110Z,3.97
2022-12-28T14:52:23.701Z,4.80
2022-12-28T14:54:53.908Z,6.27
2022-12-28T14:57:23.843Z,5.17
2022-12-28T14:59:54.428Z,4.60
2022-12-28T15:02:39.256Z,5.03
2022-12-28T15:05:27.406Z,4.63
2022-12-28T15:07:55.429Z,4.70
2022-12-28T15:10:24.827Z,3.87
2022-12-28T15:12:54.237Z,5.57
2022-12-28T15:15:22.316Z,4.90
2022-12-28T15:17:50.273Z,4.83
2022-12-28T15:20:18.322Z,3.90
2022-12-28T15:22:49.011Z,6.70
2022-12-28T15:25:17.096Z,5.33
2022-12-28T15:27:49.721Z,4.07
2022-12-28T15:30:20.594Z,7.70
2022-12-28T15:32:52.273Z,6.23
2022-12-28T15:35:20.509Z,4.27
2022-12-28T15:37:48.697Z,4.17
2022-12-28T15:40:16.661Z,5.60
2022-12-28T15:42:46.799Z,3.97
2022-12-28T15:45:15.174Z,7.10
2022-12-28T15:47:44.184Z,5.00
2022-12-28T15:50:12.554Z,5.23
2022-12-28T15:52:40.672Z,3.27
2022-12-28T15:55:08.848Z,4.37
2022-12-28T15:57:36.791Z,4.90
2022-12-28T16:00:07.263Z,3.63
2022-12-28T16:02:35.455Z,5.23
2022-12-28T16:05:03.679Z,6.47
2022-12-28T16:07:31.693Z,5.90
2022-12-28T16:09:59.691Z,7.53
2022-12-28T16:12:27.624Z,5.93
2022-12-28T16:14:55.607Z,6.43
2022-12-28T16:17:24.992Z,5.37
2022-12-28T16:19:52.966Z,3.40
2022-12-28T16:22:20.918Z,3.87
2022-12-28T16:24:49.477Z,5.87
2022-12-28T16:27:17.496Z,5.93
2022-12-28T16:29:46.504Z,6.57
2022-12-28T16:32:14.462Z,5.97
2022-12-28T16:34:43.865Z,4.63
2022-12-28T16:37:11.942Z,5.73
2022-12-28T16:39:39.969Z,3.63
2022-12-28T16:42:08.702Z,3.90
2022-12-28T16:44:37.350Z,3.20
2022-12-28T16:47:05.915Z,5.10
2022-12-28T16:49:34.203Z,4.03
2022-12-28T16:52:03.687Z,3.40
2022-12-28T16:54:31.736Z,4.50
2022-12-28T16:56:59.854Z,5.53
2022-12-28T16:59:29.428Z,4.87
2022-12-28T17:01:59.315Z,3.07
2022-12-28T17:04:27.651Z,3.70
2022-12-28T17:06:55.653Z,4.73
2022-12-28T17:09:25.076Z,6.67
2022-12-28T17:11:53.115Z,3.40
2022-12-28T17:14:36.435Z,4.80
2022-12-28T17:17:05.406Z,3.67
2022-12-28T17:19:33.436Z,5.97
2022-12-28T17:22:01.415Z,4.17
2022-12-28T17:24:30.758Z,5.87
2022-12-28T17:27:05.125Z,7.03
2022-12-28T17:29:35.615Z,3.07
2022-12-28T17:32:03.661Z,4.33
2022-12-28T17:34:31.731Z,4.93
2022-12-28T17:36:59.711Z,4.20
2022-12-28T17:39:27.717Z,3.77
2022-12-28T17:41:57.117Z,4.97
2022-12-28T17:44:25.076Z,5.27
2022-12-28T17:46:53.045Z,5.57
2022-12-28T17:49:21.050Z,6.13
2022-12-28T17:51:49.097Z,4.20
2022-12-28T17:54:17.383Z,4.07
2022-12-28T17:56:45.333Z,4.93
2022-12-28T17:59:15.989Z,4.70
2022-12-28T18:01:44.224Z,2.90
2022-12-28T18:04:12.438Z,5.23
2022-12-28T18:06:40.638Z,4.30
2022-12-28T18:09:08.590Z,4.43
2022-12-28T18:11:36.546Z,4.03
2022-12-28T18:14:04.569Z,6.80
2022-12-28T18:16:34.052Z,7.13
2022-12-28T18:19:02.137Z,4.87
2022-12-28T18:21:30.201Z,4.00
2022-12-28T18:23:58.316Z,3.70
2022-12-28T18:26:27.569Z,4.27
2022-12-28T18:28:56.299Z,3.80
2022-12-28T18:31:25.263Z,4.27
2022-12-28T18:33:54.833Z,5.07
2022-12-28T18:36:22.946Z,5.20
2022-12-28T18:38:51.277Z,3.87
2022-12-28T18:41:20.918Z,3.80
2022-12-28T18:43:49.117Z,3.30
2022-12-28T18:46:17.176Z,3.50
2022-12-28T18:48:45.232Z,6.20
2022-12-28T18:51:15.835Z,4.07
2022-12-28T18:53:44.267Z,4.47
2022-12-28T18:56:13.128Z,6.53
2022-12-28T18:58:41.673Z,4.73
2022-12-28T19:01:20.516Z,5.90
2022-12-28T19:03:59.301Z,4.63
2022-12-28T19:06:29.533Z,4.30
2022-12-28T19:08:59.780Z,4.70
2022-12-28T19:11:27.895Z,3.30
2022-12-28T19:13:55.903Z,8.20
2022-12-28T19:16:30.679Z,3.67
2022-12-28T19:18:59.478Z,6.03
2022-12-28T19:21:29.923Z,7.60
2022-12-28T19:23:58.879Z,6.93
2022-12-28T19:26:27.116Z,5.23
2022-12-28T19:28:55.148Z,9.30
2022-12-28T19:31:23.218Z,4.43
2022-12-28T19:33:51.414Z,4.93
2022-12-28T19:36:19.368Z,4.57
2022-12-28T19:38:48.816Z,4.97
2022-12-28T19:41:17.534Z,4.20
2022-12-28T19:43:45.893Z,4.53
2022-12-28T19:46:14.725Z,5.63
2022-12-28T19:48:42.796Z,7.83
2022-12-28T19:51:11.055Z,6.07
2022-12-28T19:53:39.111Z,6.63
2022-12-28T19:56:09.674Z,8.00
2022-12-28T19:58:39.194Z,6.23
2022-12-28T20:01:07.886Z,7.70
2022-12-28T20:03:36.083Z,6.03
2022-12-28T20:06:07.848Z,5.93
2022-12-28T20:08:35.786Z,4.20
2022-12-28T20:11:04.542Z,5.73
2022-12-28T20:13:34.748Z,4.40
2022-12-28T20:16:02.994Z,3.90
2022-12-28T20:18:31.080Z,5.53
2022-12-28T20:21:19.625Z,4.67
2022-12-28T20:23:48.802Z,4.47
2022-12-28T20:26:17.221Z,3.17
2022-12-28T20:28:46.908Z,3.77
2022-12-28T20:31:15.581Z,3.30
2022-12-28T20:33:43.842Z,3.80
2022-12-28T20:36:12.872Z,4.13
2022-12-28T20:38:41.058Z,3.73
2022-12-28T20:41:09.935Z,5.67
2022-12-28T20:43:36.872Z,5.57
2022-12-28T20:46:11.892Z,3.93
2022-12-28T20:48:39.960Z,5.90
2022-12-28T20:51:07.917Z,4.17
2022-12-28T20:53:35.841Z,3.27
2022-12-28T20:56:07.384Z,5.03
2022-12-28T20:58:35.716Z,3.40
2022-12-28T21:01:04.448Z,4.80
2022-12-28T21:03:34.403Z,3.10
2022-12-28T21:06:02.679Z,3.43
2022-12-28T21:08:31.298Z,3.87
2022-12-28T21:10:59.787Z,5.03
2022-12-28T21:13:28.074Z,6.33
2022-12-28T21:15:56.284Z,6.43
2022-12-28T21:18:24.344Z,8.07
2022-12-28T21:20:55.633Z,6.53
2022-12-28T21:23:23.592Z,3.40
2022-12-28T21:25:51.591Z,3.23
2022-12-28T21:28:19.838Z,7.00
2022-12-28T21:30:54.194Z,4.57
2022-12-28T21:33:22.204Z,3.83
2022-12-28T21:35:59.265Z,3.93
2022-12-28T21:38:27.205Z,6.80
2022-12-28T21:40:58.672Z,5.43
2022-12-28T21:43:26.696Z,5.83
2022-12-28T21:46:02.499Z,4.57
2022-12-28T21:48:31.806Z,4.83
2022-12-28T21:51:06.085Z,4.27
2022-12-28T21:53:34.349Z,5.07
2022-12-28T21:56:02.390Z,3.60
2022-12-28T21:58:30.400Z,5.83
2022-12-28T22:01:16.531Z,6.03
2022-12-28T22:04:02.109Z,5.07
2022-12-28T22:06:31.475Z,6.27
2022-12-28T22:09:17.164Z,7.13
2022-12-28T22:12:02.618Z,6.37
2022-12-28T22:14:30.640Z,6.67
2022-12-28T22:16:58.645Z,5.43
2022-12-28T22:19:26.848Z,3.83
2022-12-28T22:21:56.366Z,5.17
2022-12-28T22:24:24.502Z,5.83
2022-12-28T22:26:52.597Z,8.10
2022-12-28T22:29:21.696Z,6.47
2022-12-28T22:31:49.733Z,3.57
2022-12-28T22:34:17.801Z,5.80
2022-12-28T22:36:45.750Z,7.40
2022-12-28T22:39:15.166Z,6.87
2022-12-28T22:41:43.300Z,5.10
2022-12-28T22:44:11.422Z,5.13
2022-12-28T22:46:39.439Z,6.50
2022-12-28T22:49:07.431Z,7.03
2022-12-28T22:51:35.405Z,6.17
2022-12-28T22:54:03.355Z,7.10
2022-12-28T22:56:32.797Z,8.53
2022-12-28T22:59:04.772Z,5.47
2022-12-28T23:01:34.950Z,8.63
2022-12-28T23:04:03.063Z,6.60
2022-12-28T23:06:31.064Z,6.10
2022-12-28T23:08:59.362Z,5.67
2022-12-28T23:11:39.801Z,6.17
2022-12-28T23:14:28.873Z,5.17
2022-12-28T23:16:57.081Z,6.57
2022-12-28T23:19:42.770Z,7.67
2022-12-28T23:22:31.005Z,9.33
2022-12-28T23:25:16.401Z,6.27
2022-12-28T23:27:44.920Z,8.00
2022-12-28T23:30:17.744Z,5.30
2022-12-28T23:32:45.770Z,4.80
2022-12-28T23:35:13.843Z,5.03
2022-12-28T23:37:41.791Z,10.70
2022-12-28T23:40:10.547Z,7.93
2022-12-28T23:42:38.903Z,8.67
2022-12-28T23:45:07.529Z,6.53
2022-12-28T23:47:37.315Z,6.13
2022-12-28T23:50:05.695Z,7.47
2022-12-28T23:52:33.728Z,9.37
2022-12-28T23:55:01.782Z,7.47
2022-12-28T23:57:29.783Z,6.00
2022-12-28T23:59:57.761Z,6.33
